createdAt,value
2022-09-13T00:00:05.721Z,101580.47
2022-09-13T00:02:33.932Z,101574.44
2022-09-13T00:05:01.835Z,101579.00
2022-09-13T00:07:29.751Z,101575.63
2022-09-13T00:09:59.046Z,101577.56
2022-09-13T00:12:26.973Z,101575.88
2022-09-13T00:14:54.881Z,101571.78
2022-09-13T00:17:23.051Z,101572.97
2022-09-13T00:19:50.956Z,101573.44
2022-09-13T00:22:18.846Z,101582.59
2022-09-13T00:24:46.733Z,101578.59
2022-09-13T00:27:16.031Z,101578.09
2022-09-13T00:29:43.902Z,101580.97
2022-09-13T00:32:11.819Z,101575.06
2022-09-13T00:34:39.728Z,101582.38
2022-09-13T00:37:09.134Z,101582.75
2022-09-13T00:39:37.458Z,101589.09
2022-09-13T00:42:05.709Z,101582.34
2022-09-13T00:44:57.656Z,101578.13
2022-09-13T00:47:30.422Z,101571.41
2022-09-13T00:50:03.243Z,101571.41
2022-09-13T00:52:35.140Z,101575.84
2022-09-13T00:55:09.795Z,101584.72
2022-09-13T00:57:38.920Z,101585.69
2022-09-13T01:00:12.796Z,101585.78
2022-09-13T01:02:42.967Z,101594.72
2022-09-13T01:05:12.204Z,101602.75
2022-09-13T01:07:40.384Z,101597.59
2022-09-13T01:10:09.661Z,101605.75
2022-09-13T01:12:46.179Z,101606.81
2022-09-13T01:15:15.550Z,101600.91
2022-09-13T01:17:44.535Z,101602.81
2022-09-13T01:20:14.321Z,101612.69
2022-09-13T01:23:32.515Z,101609.19
2022-09-13T01:26:33.410Z,101612.78
2022-09-13T01:29:27.230Z,101607.63
2022-09-13T01:32:06.877Z,101609.41
2022-09-13T01:34:46.152Z,101604.97
2022-09-13T01:37:26.272Z,101603.16
2022-09-13T01:40:06.102Z,101599.47
2022-09-13T01:42:57.611Z,101600.06
2022-09-13T01:45:34.424Z,101605.03
2022-09-13T01:48:12.265Z,101616.19
2022-09-13T01:50:44.479Z,101617.78
2022-09-13T01:53:24.299Z,101620.31
2022-09-13T01:55:59.144Z,101624.66
2022-09-13T01:58:30.716Z,101626.34
2022-09-13T02:01:08.951Z,101623.69
2022-09-13T02:03:44.485Z,101628.13
2022-09-13T02:06:16.872Z,101625.63
2022-09-13T02:08:48.621Z,101631.00
2022-09-13T02:11:20.892Z,101631.97
2022-09-13T02:13:56.285Z,101629.44
2022-09-13T02:16:32.271Z,101637.50
2022-09-13T02:19:08.313Z,101634.13
2022-09-13T02:21:41.077Z,101640.34
2022-09-13T02:24:11.285Z,101636.25
2022-09-13T02:26:41.701Z,101634.66
2022-09-13T02:29:17.066Z,101632.28
2022-09-13T02:31:50.504Z,101642.09
2022-09-13T02:34:23.651Z,101636.09
2022-09-13T02:36:54.415Z,101632.59
2022-09-13T02:39:25.787Z,101634.50
2022-09-13T02:42:00.533Z,101645.22
2022-09-13T02:44:36.333Z,101647.00
2022-09-13T02:47:15.434Z,101647.09
2022-09-13T02:49:55.763Z,101648.06
2022-09-13T02:52:35.135Z,101653.47
2022-09-13T02:55:13.587Z,101671.03
2022-09-13T02:57:50.621Z,101678.00
2022-09-13T03:00:19.558Z,101675.38
2022-09-13T03:02:50.755Z,101693.88
2022-09-13T03:05:20.043Z,101690.38
2022-09-13T03:07:49.102Z,101688.59
2022-09-13T03:10:18.186Z,101693.03
2022-09-13T03:13:01.621Z,101686.91
2022-09-13T03:15:41.656Z,101686.97
2022-09-13T03:18:25.226Z,101687.97
2022-09-13T03:21:08.151Z,101688.06
2022-09-13T03:23:46.097Z,101688.06
2022-09-13T03:26:25.689Z,101692.63
2022-09-13T03:29:05.763Z,101686.59
2022-09-13T03:31:37.556Z,101692.75
2022-09-13T03:34:12.292Z,101691.75
2022-09-13T03:36:47.139Z,101688.19
2022-09-13T03:39:25.857Z,101692.63
2022-09-13T03:42:00.098Z,101685.41
2022-09-13T03:44:30.675Z,101680.13
2022-09-13T03:47:02.501Z,101682.75
2022-09-13T03:49:32.082Z,101691.44
2022-09-13T03:52:01.954Z,101691.44
2022-09-13T03:54:32.623Z,101702.75
2022-09-13T03:57:12.155Z,101706.13
2022-09-13T03:59:44.554Z,101701.69
2022-09-13T04:02:12.743Z,101701.56
2022-09-13T04:04:41.609Z,101703.28
2022-09-13T04:07:12.551Z,101709.28
2022-09-13T04:09:40.624Z,101704.00
2022-09-13T04:12:10.103Z,101705.69
2022-09-13T04:14:38.040Z,101703.06
2022-09-13T04:17:06.325Z,101704.00
2022-09-13T04:19:35.458Z,101719.00
2022-09-13T04:22:04.146Z,101720.84
2022-09-13T04:24:33.427Z,101720.84
2022-09-13T04:27:02.791Z,101726.22
2022-09-13T04:29:31.796Z,101733.31
2022-09-13T04:32:00.594Z,101732.47
2022-09-13T04:34:28.660Z,101748.44
2022-09-13T04:36:57.133Z,101741.50
2022-09-13T04:39:25.029Z,101751.22
2022-09-13T04:41:55.245Z,101761.88
2022-09-13T04:44:24.487Z,101757.56
2022-09-13T04:46:52.675Z,101759.44
2022-09-13T04:49:22.055Z,101767.50
2022-09-13T04:51:50.826Z,101777.22
2022-09-13T04:54:19.047Z,101781.88
2022-09-13T04:56:47.667Z,101784.53
2022-09-13T04:59:17.210Z,101782.94
2022-09-13T05:01:45.255Z,101778.63
2022-09-13T05:04:13.473Z,101775.97
2022-09-13T05:06:41.413Z,101788.44
2022-09-13T05:09:13.585Z,101797.41
2022-09-13T05:11:42.311Z,101807.25
2022-09-13T05:14:12.261Z,101830.31
2022-09-13T05:16:41.611Z,101841.81
2022-09-13T05:19:10.629Z,101857.81
2022-09-13T05:21:38.576Z,101856.09
2022-09-13T05:24:06.588Z,101853.56
2022-09-13T05:26:34.626Z,101864.22
2022-09-13T05:29:03.166Z,101864.34
2022-09-13T05:31:33.142Z,101863.50
2022-09-13T05:34:04.082Z,101858.09
2022-09-13T05:36:32.098Z,101866.88
2022-09-13T05:39:31.861Z,101866.88
2022-09-13T05:41:48.795Z,101861.59
2022-09-13T05:44:16.762Z,101857.28
2022-09-13T05:46:48.319Z,101866.03
2022-09-13T05:49:17.646Z,101860.00
2022-09-13T05:51:45.572Z,101865.41
2022-09-13T05:54:14.120Z,101874.28
2022-09-13T05:56:42.076Z,101870.91
2022-09-13T05:59:13.039Z,101869.19
2022-09-13T06:01:41.103Z,101866.66
2022-09-13T06:04:09.119Z,101865.94
2022-09-13T06:06:38.787Z,101871.31
2022-09-13T06:09:08.658Z,101874.16
2022-09-13T06:11:36.618Z,101869.81
2022-09-13T06:14:04.546Z,101868.13
2022-09-13T06:16:32.664Z,101870.88
2022-09-13T06:19:01.105Z,101878.91
2022-09-13T06:21:29.530Z,101873.59
2022-09-13T06:23:59.272Z,101867.59
2022-09-13T06:26:28.889Z,101865.88
2022-09-13T06:28:58.681Z,101864.22
2022-09-13T06:31:28.655Z,101861.66
2022-09-13T06:33:58.748Z,101863.44
2022-09-13T06:36:27.012Z,101855.63
2022-09-13T06:38:54.982Z,101854.78
2022-09-13T06:41:27.372Z,101848.66
2022-09-13T06:43:57.596Z,101852.13
2022-09-13T06:46:26.724Z,101848.66
2022-09-13T06:48:54.927Z,101853.06
2022-09-13T06:51:25.906Z,101846.97
2022-09-13T06:53:56.660Z,101842.50
2022-09-13T06:56:27.849Z,101847.78
2022-09-13T06:58:58.680Z,101847.78
2022-09-13T07:01:28.691Z,101841.44
2022-09-13T07:04:00.358Z,101837.03
2022-09-13T07:06:30.061Z,101838.00
2022-09-13T07:09:00.247Z,101827.41
2022-09-13T07:11:32.012Z,101830.69
2022-09-13T07:14:01.096Z,101822.66
2022-09-13T07:16:31.280Z,101820.75
2022-09-13T07:19:00.822Z,101821.50
2022-09-13T07:21:30.060Z,101813.56
2022-09-13T07:23:58.294Z,101817.78
2022-09-13T07:26:27.469Z,101809.88
2022-09-13T07:28:59.392Z,101804.69
2022-09-13T07:31:29.892Z,101808.28
2022-09-13T07:34:00.483Z,101811.91
2022-09-13T07:36:31.694Z,101807.53
2022-09-13T07:39:00.405Z,101804.91
2022-09-13T07:41:29.983Z,101809.34
2022-09-13T07:44:00.649Z,101811.25
2022-09-13T07:46:32.409Z,101808.06
2022-09-13T07:49:02.068Z,101806.88
2022-09-13T07:51:31.275Z,101809.31
2022-09-13T07:54:01.447Z,101817.72
2022-09-13T07:56:31.585Z,101821.72
2022-09-13T07:59:02.530Z,101825.75
2022-09-13T08:01:34.409Z,101829.72
2022-09-13T08:04:03.965Z,101824.44
2022-09-13T08:06:34.394Z,101833.91
2022-09-13T08:09:03.727Z,101838.81
2022-09-13T08:11:33.505Z,101843.00
2022-09-13T08:14:03.333Z,101847.06
2022-09-13T08:16:31.611Z,101862.34
2022-09-13T08:19:02.076Z,101871.28
2022-09-13T08:21:34.611Z,101874.84
2022-09-13T08:24:03.450Z,101888.97
2022-09-13T08:26:32.907Z,101911.97
2022-09-13T08:29:03.917Z,101922.88
2022-09-13T08:31:32.370Z,101929.31
2022-09-13T08:34:00.535Z,101939.00
2022-09-13T08:36:29.743Z,101946.06
2022-09-13T08:39:00.370Z,101955.75
2022-09-13T08:41:52.469Z,101953.97
2022-09-13T08:44:28.674Z,101964.50
2022-09-13T08:47:05.369Z,101973.47
2022-09-13T08:49:36.721Z,101980.69
2022-09-13T08:52:13.495Z,101992.19
2022-09-13T08:54:41.541Z,102002.75
2022-09-13T08:57:16.902Z,102005.56
2022-09-13T08:59:55.622Z,102003.84
2022-09-13T09:02:53.211Z,102019.69
2022-09-13T09:05:23.114Z,102032.00
2022-09-13T09:07:55.991Z,102026.66
2022-09-13T09:10:27.042Z,102036.19
2022-09-13T09:12:58.417Z,102050.03
2022-09-13T09:15:33.732Z,102049.09
2022-09-13T09:18:07.227Z,102052.50
2022-09-13T09:20:39.169Z,102060.19
2022-09-13T09:23:17.839Z,102075.22
2022-09-13T09:25:48.923Z,102073.38
2022-09-13T09:28:19.096Z,102082.09
2022-09-13T09:31:00.185Z,102083.75
2022-09-13T09:33:43.347Z,102081.91
2022-09-13T09:36:24.903Z,102088.00
2022-09-13T09:38:52.934Z,102094.06
2022-09-13T09:41:28.327Z,102106.22
2022-09-13T09:44:03.804Z,102115.75
2022-09-13T09:46:36.839Z,102111.16
2022-09-13T09:49:34.818Z,102123.09
2022-09-13T09:52:07.476Z,102140.19
2022-09-13T09:54:38.165Z,102141.38
2022-09-13T09:57:08.259Z,102137.25
2022-09-13T09:59:37.215Z,102140.94
2022-09-13T10:02:17.462Z,102146.38
2022-09-13T10:04:56.230Z,102139.41
2022-09-13T10:07:28.948Z,102136.19
2022-09-13T10:10:01.413Z,102135.84
2022-09-13T10:12:33.949Z,102132.03
2022-09-13T10:15:17.729Z,102131.97
2022-09-13T10:18:03.084Z,102137.13
2022-09-13T10:20:31.714Z,102128.47
2022-09-13T10:23:22.141Z,102125.72
2022-09-13T10:26:03.765Z,102131.97
2022-09-13T10:28:33.705Z,102139.88
2022-09-13T10:31:05.835Z,102140.72
2022-09-13T10:33:38.308Z,102146.00
2022-09-13T10:36:09.655Z,102154.88
2022-09-13T10:38:42.960Z,102159.22
2022-09-13T10:41:24.143Z,102162.63
2022-09-13T10:43:58.824Z,102161.47
2022-09-13T10:46:30.030Z,102166.41
2022-09-13T10:48:59.871Z,102168.66
2022-09-13T10:51:36.816Z,102182.25
2022-09-13T10:54:19.444Z,102184.69
2022-09-13T10:56:48.103Z,102194.06
2022-09-13T10:59:22.347Z,102187.72
2022-09-13T11:02:31.745Z,102196.00
2022-09-13T11:05:16.904Z,102200.94
2022-09-13T11:08:25.986Z,102196.13
2022-09-13T11:11:05.597Z,102193.75
2022-09-13T11:13:46.046Z,102187.09
2022-09-13T11:16:30.347Z,102186.81
2022-09-13T11:19:15.134Z,102172.53
2022-09-13T11:21:57.538Z,102174.78
2022-09-13T11:24:44.438Z,102159.44
2022-09-13T11:27:24.165Z,102159.06
2022-09-13T11:30:11.730Z,102152.06
2022-09-13T11:33:02.528Z,102148.59
2022-09-13T11:35:43.573Z,102144.88
2022-09-13T11:38:33.939Z,102137.47
2022-09-13T11:41:13.992Z,102132.81
2022-09-13T11:43:56.323Z,102127.44
2022-09-13T11:46:31.773Z,102125.53
2022-09-13T11:49:27.099Z,102120.69
2022-09-13T11:52:04.480Z,102107.88
2022-09-13T11:54:56.135Z,102098.84
2022-09-13T11:57:28.733Z,102083.94
2022-09-13T12:00:00.434Z,102076.84
2022-09-13T12:02:41.491Z,102059.16
2022-09-13T12:05:22.437Z,102062.34
2022-09-13T12:07:56.672Z,102054.97
2022-09-13T12:10:31.378Z,102056.88
2022-09-13T12:13:01.597Z,102053.69
2022-09-13T12:15:37.575Z,102049.03
2022-09-13T12:18:12.911Z,102036.50
2022-09-13T12:20:44.354Z,102024.84
2022-09-13T12:23:17.300Z,102016.19
2022-09-13T12:25:52.811Z,102013.19
2022-09-13T12:28:25.728Z,102002.16
2022-09-13T12:30:56.896Z,101990.28
2022-09-13T12:33:25.061Z,101986.44
2022-09-13T12:36:07.404Z,101984.56
2022-09-13T12:39:26.053Z,101972.75
2022-09-13T12:42:23.592Z,101944.69
2022-09-13T12:45:05.761Z,101946.59
2022-09-13T12:47:54.546Z,101941.31
2022-09-13T12:50:46.142Z,101929.22
2022-09-13T12:53:51.401Z,101920.03
2022-09-13T12:56:35.324Z,101914.66
2022-09-13T12:59:26.585Z,101910.25
2022-09-13T13:01:55.126Z,101910.91
2022-09-13T13:04:27.068Z,101909.41
2022-09-13T13:06:58.249Z,101916.94
2022-09-13T13:09:35.723Z,101911.88
2022-09-13T13:12:04.368Z,101926.38
2022-09-13T13:14:53.197Z,101922.16
2022-09-13T13:17:43.085Z,101919.59
2022-09-13T13:20:56.906Z,101920.66
2022-09-13T13:23:28.916Z,101916.63
2022-09-13T13:26:10.104Z,101906.50
2022-09-13T13:29:15.765Z,101911.16
2022-09-13T13:31:47.108Z,101910.72
2022-09-13T13:34:37.421Z,101904.81
2022-09-13T13:37:07.283Z,101911.16
2022-09-13T13:39:38.500Z,101907.97
2022-09-13T13:42:26.523Z,101914.25
2022-09-13T13:45:07.728Z,101918.75
2022-09-13T13:48:20.001Z,101918.25
2022-09-13T13:51:24.233Z,101918.69
2022-09-13T13:53:57.608Z,101924.06
2022-09-13T13:56:35.204Z,101920.47
2022-09-13T13:59:14.617Z,101927.34
2022-09-13T14:01:49.702Z,101931.66
2022-09-13T14:05:11.259Z,101933.50
2022-09-13T14:08:12.370Z,101931.91
2022-09-13T14:10:52.239Z,101939.94
2022-09-13T14:13:38.465Z,101937.19
2022-09-13T14:16:11.244Z,101943.09
2022-09-13T14:19:07.414Z,101941.84
2022-09-13T14:21:35.465Z,101944.06
2022-09-13T14:24:24.877Z,101937.31
2022-09-13T14:26:58.895Z,101940.56
2022-09-13T14:29:27.192Z,101941.22
2022-09-13T14:32:04.263Z,101930.53
2022-09-13T14:34:34.522Z,101933.91
2022-09-13T14:37:05.397Z,101930.22
2022-09-13T14:39:33.851Z,101932.00
2022-09-13T14:42:08.646Z,101931.06
2022-09-13T14:44:36.570Z,101933.72
2022-09-13T14:47:13.407Z,101935.63
2022-09-13T14:49:49.143Z,101934.13
2022-09-13T14:52:25.211Z,101936.13
2022-09-13T14:54:57.577Z,101947.03
2022-09-13T14:57:30.486Z,101948.19
2022-09-13T15:00:01.428Z,101937.94
2022-09-13T15:02:33.646Z,101940.78
2022-09-13T15:05:02.852Z,101944.59
2022-09-13T15:07:32.854Z,101948.31
2022-09-13T15:10:08.652Z,101952.81
2022-09-13T15:12:38.495Z,101954.75
2022-09-13T15:15:27.925Z,101954.00
2022-09-13T15:17:58.131Z,101969.34
2022-09-13T15:20:28.322Z,101974.84
2022-09-13T15:22:56.729Z,101972.38
2022-09-13T15:25:28.285Z,101978.03
2022-09-13T15:27:58.667Z,101981.75
2022-09-13T15:30:29.848Z,101987.97
2022-09-13T15:33:15.969Z,101996.94
2022-09-13T15:35:45.301Z,101997.19
2022-09-13T15:38:26.815Z,102006.91
2022-09-13T15:41:04.257Z,102000.97
2022-09-13T15:43:33.786Z,102013.44
2022-09-13T15:46:04.787Z,102017.88
2022-09-13T15:48:35.194Z,102030.97
2022-09-13T15:51:09.542Z,102026.66
2022-09-13T15:53:38.932Z,102024.09
2022-09-13T15:56:08.444Z,102034.78
2022-09-13T15:58:38.070Z,102032.22
2022-09-13T16:01:06.841Z,102043.66
2022-09-13T16:03:34.986Z,102038.56
2022-09-13T16:06:03.058Z,102045.75
2022-09-13T16:08:31.311Z,102043.28
2022-09-13T16:10:59.488Z,102044.34
2022-09-13T16:13:27.642Z,102055.03
2022-09-13T16:15:58.243Z,102057.66
2022-09-13T16:18:26.484Z,102063.88
2022-09-13T16:20:54.456Z,102067.47
2022-09-13T16:23:22.426Z,102066.72
2022-09-13T16:25:54.312Z,102073.91
2022-09-13T16:28:22.348Z,102078.44
2022-09-13T16:30:50.802Z,102091.84
2022-09-13T16:33:20.525Z,102094.69
2022-09-13T16:35:48.719Z,102104.59
2022-09-13T16:38:16.940Z,102111.00
2022-09-13T16:40:45.245Z,102120.81
2022-09-13T16:43:13.952Z,102142.78
2022-09-13T16:45:44.844Z,102151.69
2022-09-13T16:48:13.118Z,102156.13
2022-09-13T16:50:42.646Z,102171.22
2022-09-13T16:53:10.867Z,102173.94
2022-09-13T16:55:39.024Z,102198.63
2022-09-13T16:58:06.947Z,102194.38
2022-09-13T17:00:34.954Z,102202.41
2022-09-13T17:03:03.032Z,102200.81
2022-09-13T17:05:31.190Z,102211.38
2022-09-13T17:08:00.574Z,102221.09
2022-09-13T17:10:28.889Z,102221.09
2022-09-13T17:12:56.795Z,102224.66
2022-09-13T17:15:24.810Z,102233.44
2022-09-13T17:17:52.790Z,102238.72
2022-09-13T17:20:20.906Z,102249.41
2022-09-13T17:22:48.795Z,102253.72
2022-09-13T17:25:20.842Z,102250.25
2022-09-13T17:27:48.760Z,102256.56
2022-09-13T17:30:17.032Z,102260.13
2022-09-13T17:32:44.901Z,102265.50
2022-09-13T17:35:12.957Z,102273.53
2022-09-13T17:37:40.876Z,102269.16
2022-09-13T17:40:09.757Z,102269.38
2022-09-13T17:42:39.146Z,102279.16
2022-09-13T17:45:07.557Z,102295.97
2022-09-13T17:47:35.496Z,102289.88
2022-09-13T17:50:03.382Z,102289.13
2022-09-13T17:52:34.779Z,102285.72
2022-09-13T17:55:03.275Z,102289.28
2022-09-13T17:57:31.220Z,102297.19
2022-09-13T18:00:00.536Z,102291.91
2022-09-13T18:02:29.546Z,102284.09
2022-09-13T18:04:58.317Z,102291.16
2022-09-13T18:07:27.517Z,102286.91
2022-09-13T18:09:55.753Z,102283.59
2022-09-13T18:12:23.667Z,102277.72
2022-09-13T18:14:51.573Z,102281.50
2022-09-13T18:17:20.896Z,102267.69
2022-09-13T18:19:48.779Z,102270.59
2022-09-13T18:22:16.761Z,102273.41
2022-09-13T18:24:44.807Z,102268.28
2022-09-13T18:27:12.760Z,102270.19
2022-09-13T18:29:44.915Z,102268.47
2022-09-13T18:32:12.813Z,102256.28
2022-09-13T18:34:43.834Z,102255.66
2022-09-13T18:37:11.710Z,102246.19
2022-09-13T18:39:39.592Z,102236.66
2022-09-13T18:42:07.729Z,102227.03
2022-09-13T18:44:35.676Z,102214.97
2022-09-13T18:47:05.241Z,102207.22
2022-09-13T18:49:33.149Z,102200.41
2022-09-13T18:52:02.553Z,102189.09
2022-09-13T18:54:30.473Z,102171.75
2022-09-13T18:56:58.944Z,102156.09
2022-09-13T18:59:27.829Z,102137.81
2022-09-13T19:01:56.523Z,102124.81
2022-09-13T19:04:24.622Z,102108.41
2022-09-13T19:06:54.152Z,102096.31
2022-09-13T19:09:24.177Z,102076.34
2022-09-13T19:11:53.801Z,102061.56
2022-09-13T19:14:23.964Z,102052.00
2022-09-13T19:16:53.187Z,102045.13
2022-09-13T19:19:21.788Z,102037.41
2022-09-13T19:21:50.158Z,102022.59
2022-09-13T19:24:19.722Z,102023.53
2022-09-13T19:26:51.972Z,102010.53
2022-09-13T19:29:21.742Z,102014.19
2022-09-13T19:31:50.887Z,102011.56
2022-09-13T19:34:20.537Z,102007.41
2022-09-13T19:36:50.649Z,102002.22
2022-09-13T19:39:19.271Z,102003.25
2022-09-13T19:41:47.355Z,102005.97
2022-09-13T19:44:17.690Z,102008.69
2022-09-13T19:46:46.173Z,101997.28
2022-09-13T19:49:16.416Z,101999.91
2022-09-13T19:51:50.226Z,102004.44
2022-09-13T19:54:20.646Z,102010.63
2022-09-13T19:56:50.158Z,102018.63
2022-09-13T19:59:21.077Z,102016.84
2022-09-13T20:01:49.714Z,102019.50
2022-09-13T20:04:19.615Z,102021.16
2022-09-13T20:06:49.516Z,102030.03
2022-09-13T20:09:19.237Z,102031.91
2022-09-13T20:11:48.635Z,102037.19
2022-09-13T20:14:18.579Z,102041.66
2022-09-13T20:16:48.540Z,102049.66
2022-09-13T20:19:39.430Z,102051.44
2022-09-13T20:22:07.384Z,102058.34
2022-09-13T20:24:35.306Z,102059.19
2022-09-13T20:27:03.508Z,102068.69
2022-09-13T20:29:32.087Z,102071.34
2022-09-13T20:32:02.445Z,102077.47
2022-09-13T20:34:31.155Z,102079.25
2022-09-13T20:36:59.192Z,102086.28
2022-09-13T20:39:27.471Z,102088.94
2022-09-13T20:41:55.729Z,102091.56
2022-09-13T20:44:23.840Z,102091.66
2022-09-13T20:46:51.881Z,102101.44
2022-09-13T20:49:22.310Z,102105.91
2022-09-13T20:51:51.043Z,102110.53
2022-09-13T20:54:19.366Z,102112.38
2022-09-13T20:56:47.533Z,102122.16
2022-09-13T20:59:15.897Z,102118.66
2022-09-13T21:01:44.062Z,102134.47
2022-09-13T21:04:12.062Z,102128.28
2022-09-13T21:07:03.660Z,102132.59
2022-09-13T21:09:32.554Z,102136.09
2022-09-13T21:12:01.930Z,102146.72
2022-09-13T21:14:34.123Z,102156.41
2022-09-13T21:17:06.683Z,102153.00
2022-09-13T21:19:34.909Z,102165.44
2022-09-13T21:22:04.257Z,102167.25
2022-09-13T21:24:32.485Z,102178.59
2022-09-13T21:27:00.388Z,102174.16
2022-09-13T21:29:28.345Z,102176.78
2022-09-13T21:31:56.830Z,102182.06
2022-09-13T21:34:27.285Z,102176.78
2022-09-13T21:36:55.695Z,102175.88
2022-09-13T21:39:25.028Z,102179.34
2022-09-13T21:41:52.919Z,102176.72
2022-09-13T21:44:20.835Z,102185.47
2022-09-13T21:46:48.708Z,102176.63
2022-09-13T21:49:17.252Z,102175.00
2022-09-13T21:51:47.044Z,102181.22
2022-09-13T21:54:18.482Z,102174.25
2022-09-13T21:56:50.918Z,102172.53
2022-09-13T21:59:20.386Z,102170.84
2022-09-13T22:01:55.118Z,102176.94
2022-09-13T22:04:27.268Z,102169.13
2022-09-13T22:06:56.221Z,102173.50
2022-09-13T22:09:27.271Z,102168.97
2022-09-13T22:11:57.333Z,102168.97
2022-09-13T22:14:25.252Z,102172.38
2022-09-13T22:16:53.651Z,102175.97
2022-09-13T22:19:30.641Z,102177.63
2022-09-13T22:22:00.003Z,102182.06
2022-09-13T22:24:31.807Z,102171.63
2022-09-13T22:27:01.225Z,102166.41
2022-09-13T22:29:29.918Z,102164.72
2022-09-13T22:31:57.832Z,102167.44
2022-09-13T22:34:30.726Z,102164.97
2022-09-13T22:36:58.782Z,102165.91
2022-09-13T22:39:26.668Z,102158.91
2022-09-13T22:41:54.685Z,102161.50
2022-09-13T22:44:23.978Z,102167.63
2022-09-13T22:46:51.878Z,102157.09
2022-09-13T22:49:21.261Z,102153.50
2022-09-13T22:51:49.519Z,102152.72
2022-09-13T22:54:19.104Z,102147.47
2022-09-13T22:56:47.350Z,102150.09
2022-09-13T22:59:16.890Z,102147.63
2022-09-13T23:01:46.216Z,102138.97
2022-09-13T23:04:18.875Z,102140.81
2022-09-13T23:06:46.809Z,102138.19
2022-09-13T23:09:17.792Z,102140.91
2022-09-13T23:11:46.507Z,102129.50
2022-09-13T23:14:16.809Z,102130.38
2022-09-13T23:16:48.955Z,102131.22
2022-09-13T23:19:17.916Z,102126.81
2022-09-13T23:21:46.008Z,102117.09
2022-09-13T23:24:17.558Z,102114.47
2022-09-13T23:26:46.350Z,102107.53
2022-09-13T23:29:16.722Z,102107.59
2022-09-13T23:31:44.810Z,102096.22
2022-09-13T23:34:14.917Z,102094.41
2022-09-13T23:36:44.743Z,102084.91
2022-09-13T23:39:16.481Z,102079.63
2022-09-13T23:41:44.990Z,102074.38
2022-09-13T23:44:13.062Z,102068.19
2022-09-13T23:46:41.047Z,102064.63
2022-09-13T23:49:08.954Z,102057.66
2022-09-13T23:51:38.445Z,102049.75
2022-09-13T23:54:06.749Z,102041.00
2022-09-13T23:56:35.925Z,102038.28
2022-09-13T23:59:05.294Z,102037.44
